Time;durP1;ratioP1;P1;durP2;ratioP2;P2;SDS_P1;SDS_P2;PMS_P1;PMS_P2;Temp;Humidity;BMP_temperature;BMP_pressure;BME280_temperature;BME280_humidity;BME280_pressure;Samples;Min_cycle;Max_cycle;Signal;HPM_P1;HPM_P2
2022/08/02 00:02:23;;;;;;;10.80;3.97;;;13.00;99.90;;;;;;5067189;28;20036;-78
2022/08/02 00:04:49;;;;;;;15.55;4.72;;;13.00;99.90;;;;;;5083039;28;20052;-77
2022/08/02 00:07:16;;;;;;;5.88;2.65;;;12.90;99.90;;;;;;5068933;28;20089;-78
2022/08/02 00:09:42;;;;;;;11.25;2.65;;;13.10;99.90;;;;;;5086486;28;20549;-78
2022/08/02 00:12:08;;;;;;;11.25;4.63;;;13.10;99.90;;;;;;5088402;28;20259;-78
2022/08/02 00:14:34;;;;;;;5.97;2.75;;;12.90;99.90;;;;;;5065811;28;20052;-78
2022/08/02 00:17:00;;;;;;;6.22;3.20;;;12.80;99.90;;;;;;5077753;28;20039;-78
2022/08/02 00:19:26;;;;;;;8.93;3.33;;;12.90;99.90;;;;;;5063859;28;20047;-77
2022/08/02 00:21:51;;;;;;;6.72;3.83;;;12.80;99.90;;;;;;5065698;28;20040;-77
2022/08/02 00:24:17;;;;;;;13.75;6.57;;;12.80;99.90;;;;;;5086667;28;20043;-77
2022/08/02 00:26:43;;;;;;;15.93;7.30;;;12.80;99.90;;;;;;5082993;28;20115;-77
2022/08/02 00:29:09;;;;;;;9.82;5.22;;;12.80;99.90;;;;;;5049580;28;20772;-77
2022/08/02 00:31:34;;;;;;;16.70;10.80;;;12.70;99.90;;;;;;5065114;28;20068;-78
2022/08/02 00:34:00;;;;;;;21.77;14.25;;;12.80;99.90;;;;;;5086448;28;20054;-77
2022/08/02 00:36:26;;;;;;;12.15;7.78;;;12.70;99.90;;;;;;5083449;28;20066;-77
2022/08/02 00:38:52;;;;;;;16.73;10.02;;;12.80;99.90;;;;;;5068350;28;20414;-77
2022/08/02 00:41:20;;;;;;;16.88;4.88;;;12.70;99.90;;;;;;5083144;28;20051;-78
2022/08/02 00:43:47;;;;;;;16.50;5.93;;;12.60;99.90;;;;;;5066595;28;20040;-77
2022/08/02 00:46:14;;;;;;;11.80;7.60;;;12.60;99.90;;;;;;5083766;28;20847;-78
2022/08/02 00:48:40;;;;;;;9.40;5.78;;;12.60;99.90;;;;;;5086041;28;20064;-77
2022/08/02 00:51:06;;;;;;;13.45;6.10;;;12.60;99.90;;;;;;5082815;28;20113;-78
2022/08/02 00:53:32;;;;;;;13.52;5.45;;;12.60;99.90;;;;;;5068964;28;20070;-77
2022/08/02 00:55:58;;;;;;;11.13;5.45;;;12.60;99.90;;;;;;5063832;28;20048;-77
2022/08/02 00:58:24;;;;;;;11.43;5.88;;;12.50;99.90;;;;;;5086037;28;20048;-78
2022/08/02 01:00:50;;;;;;;15.70;8.65;;;12.60;99.90;;;;;;5065777;28;20187;-78
2022/08/02 01:03:15;;;;;;;18.85;11.90;;;12.60;99.90;;;;;;5084081;28;20741;-77
2022/08/02 01:05:42;;;;;;;19.13;10.52;;;12.60;99.90;;;;;;5061157;28;20036;-77
2022/08/02 01:08:08;;;;;;;12.88;8.32;;;12.50;99.90;;;;;;5065199;28;20291;-77
2022/08/02 01:10:34;;;;;;;14.77;9.40;;;12.50;99.90;;;;;;5084738;28;20476;-78
2022/08/02 01:13:00;;;;;;;15.88;11.27;;;12.50;99.90;;;;;;5084529;28;20040;-78
2022/08/02 01:15:27;;;;;;;16.48;9.15;;;12.50;99.90;;;;;;5084413;28;20071;-78
2022/08/02 01:18:04;;;;;;;15.23;7.65;;;12.40;99.90;;;;;;5079636;28;20044;-78
2022/08/02 01:20:54;;;;;;;24.05;15.10;;;12.40;99.90;;;;;;5068416;28;20048;-78
2022/08/02 01:23:45;;;;;;;23.85;14.25;;;12.30;99.90;;;;;;5039686;28;20155;-78
2022/08/02 01:26:38;;;;;;;29.33;9.30;;;12.30;99.90;;;;;;5064706;28;21076;-77
2022/08/02 01:29:30;;;;;;;11.77;7.38;;;12.40;99.90;;;;;;5051584;28;20060;-78
2022/08/02 01:32:02;;;;;;;14.65;6.80;;;12.40;99.90;;;;;;5060808;28;20582;-78
2022/08/02 01:34:38;;;;;;;13.15;4.40;;;12.40;99.90;;;;;;5066273;28;20384;-78
2022/08/02 01:37:15;;;;;;;16.00;8.00;;;12.40;99.90;;;;;;5052400;28;20135;-78
2022/08/02 01:39:43;;;;;;;12.40;5.95;;;12.40;99.90;;;;;;5064282;28;20547;-78
2022/08/02 01:42:10;;;;;;;9.35;6.03;;;12.40;99.90;;;;;;5084655;28;20052;-78
2022/08/02 01:44:41;;;;;;;12.23;4.78;;;12.50;99.90;;;;;;5081562;28;20054;-77
2022/08/02 01:47:09;;;;;;;;;;;12.40;99.90;;;;;;5068291;28;20048;-77
2022/08/02 01:49:38;;;;;;;12.60;4.88;;;12.40;99.90;;;;;;5066588;28;19920;-78
2022/08/02 01:52:21;;;;;;;6.30;5.28;;;12.40;99.90;;;;;;5079715;28;20608;-76
2022/08/02 01:55:01;;;;;;;12.32;5.90;;;12.30;99.90;;;;;;5044674;28;20048;-77
2022/08/02 01:57:33;;;;;;;7.90;5.03;;;12.40;99.90;;;;;;5046709;28;20040;-77
2022/08/02 02:00:00;;;;;;;7.97;4.93;;;12.40;99.90;;;;;;5082364;28;20032;-76
2022/08/02 02:02:27;;;;;;;16.88;4.78;;;12.50;99.90;;;;;;5049846;28;20508;-77
2022/08/02 02:04:56;;;;;;;6.45;3.10;;;12.60;99.90;;;;;;5059357;28;20051;-77
2022/08/02 02:07:23;;;;;;;9.50;3.72;;;12.50;99.90;;;;;;5063853;28;20044;-77
2022/08/02 02:09:50;;;;;;;18.00;5.15;;;12.60;99.90;;;;;;5064884;28;20397;-73
2022/08/02 02:12:18;;;;;;;8.38;4.13;;;12.60;99.90;;;;;;5058048;28;20437;-77
2022/08/02 02:14:43;;;;;;;12.27;4.07;;;12.60;99.90;;;;;;5083334;28;20035;-77
2022/08/02 02:17:12;;;;;;;8.50;3.33;;;12.60;99.90;;;;;;5084165;28;20046;-76
2022/08/02 02:19:38;;;;;;;10.23;3.40;;;12.50;99.90;;;;;;5080852;28;20044;-77
2022/08/02 02:22:04;;;;;;;18.83;5.85;;;12.50;99.90;;;;;;5081495;28;20040;-77
2022/08/02 02:24:30;;;;;;;11.13;5.28;;;12.60;99.90;;;;;;5081189;28;20158;-78
2022/08/02 02:27:00;;;;;;;9.10;4.88;;;12.50;99.90;;;;;;5081754;28;20066;-79
2022/08/02 02:29:29;;;;;;;17.88;6.10;;;12.50;99.90;;;;;;5078786;28;20072;-77
2022/08/02 02:31:57;;;;;;;6.28;3.05;;;12.50;99.90;;;;;;5071880;28;20514;-77
2022/08/02 02:34:38;;;;;;;11.05;4.10;;;12.60;99.90;;;;;;5082870;28;20071;-79
2022/08/02 02:37:07;;;;;;;12.85;5.40;;;12.50;99.90;;;;;;5057749;28;20044;-79
2022/08/02 02:39:34;;;;;;;9.77;4.45;;;12.50;99.90;;;;;;5080145;28;20042;-79
2022/08/02 02:42:05;;;;;;;13.02;4.72;;;12.70;99.90;;;;;;5056026;28;20047;-77
2022/08/02 02:44:34;;;;;;;11.88;4.35;;;12.70;99.90;;;;;;5077602;28;22354;-79
2022/08/02 02:47:01;;;;;;;10.10;4.43;;;12.60;99.90;;;;;;5060836;28;20404;-76
2022/08/02 02:49:31;;;;;;;16.27;4.63;;;12.60;99.90;;;;;;5082949;28;20067;-76
2022/08/02 02:51:58;;;;;;;9.27;4.43;;;12.70;99.90;;;;;;5083956;28;20184;-77
2022/08/02 02:54:26;;;;;;;10.00;4.45;;;12.60;99.90;;;;;;5081676;28;20093;-77
2022/08/02 02:56:53;;;;;;;8.40;4.18;;;12.50;99.90;;;;;;5064003;28;20368;-77
2022/08/02 02:59:19;;;;;;;10.13;4.55;;;12.50;99.90;;;;;;5065124;28;20055;-77
2022/08/02 03:01:45;;;;;;;15.73;4.90;;;12.50;99.90;;;;;;5083002;28;20032;-77
2022/08/02 03:04:13;;;;;;;12.50;5.03;;;12.60;99.90;;;;;;5064575;28;20047;-77
2022/08/02 03:06:39;;;;;;;10.02;4.68;;;12.50;99.90;;;;;;5065899;28;20974;-76
2022/08/02 03:09:05;;;;;;;11.55;4.15;;;12.50;99.90;;;;;;5083548;28;20032;-78
2022/08/02 03:11:32;;;;;;;13.13;3.90;;;12.50;99.90;;;;;;5065612;28;20040;-78
2022/08/02 03:14:00;;;;;;;11.10;5.30;;;12.40;99.90;;;;;;5084322;28;20127;-77
2022/08/02 03:16:29;;;;;;;17.65;5.70;;;12.40;99.90;;;;;;5057509;28;20040;-77
2022/08/02 03:18:57;;;;;;;13.02;5.28;;;12.40;99.90;;;;;;5080445;28;20051;-78
2022/08/02 03:21:23;;;;;;;10.45;4.50;;;12.40;99.90;;;;;;5068360;28;20040;-77
2022/08/02 03:23:49;;;;;;;11.32;4.80;;;12.50;99.90;;;;;;5082593;28;20028;-77
2022/08/02 03:26:15;;;;;;;7.88;4.50;;;12.50;99.90;;;;;;5068681;28;20079;-78
2022/08/02 03:28:42;;;;;;;16.60;5.25;;;12.50;99.90;;;;;;5083352;28;20064;-76
2022/08/02 03:31:08;;;;;;;11.02;4.65;;;12.50;99.90;;;;;;5069500;28;20048;-78
2022/08/02 03:33:35;;;;;;;13.00;5.20;;;12.50;99.90;;;;;;5089492;28;20051;-77
2022/08/02 03:36:11;;;;;;;8.38;4.70;;;12.40;99.90;;;;;;5088787;28;20082;-79
2022/08/02 03:38:37;;;;;;;9.60;4.53;;;12.50;99.90;;;;;;5067959;28;20522;-79
2022/08/02 03:41:04;;;;;;;10.52;4.97;;;12.50;99.90;;;;;;5082774;28;20170;-79
2022/08/02 03:43:31;;;;;;;9.45;4.13;;;12.50;99.90;;;;;;5070116;28;20495;-78
2022/08/02 03:45:57;;;;;;;12.68;5.10;;;12.50;99.90;;;;;;5087584;28;20052;-78
2022/08/02 03:48:26;;;;;;;15.10;4.13;;;12.50;99.90;;;;;;5086376;28;20048;-77
2022/08/02 03:50:52;;;;;;;8.75;4.57;;;12.50;99.90;;;;;;5087301;28;20032;-79
2022/08/02 03:53:18;;;;;;;9.98;4.78;;;12.40;99.90;;;;;;5070768;28;20135;-76
2022/08/02 03:55:44;;;;;;;12.10;4.32;;;12.40;99.90;;;;;;5084463;28;20039;-77
2022/08/02 03:58:20;;;;;;;6.53;3.55;;;12.50;99.90;;;;;;5087482;28;20074;-77
2022/08/02 04:00:46;;;;;;;14.82;4.57;;;12.50;99.90;;;;;;5085962;28;20047;-76
2022/08/02 04:03:12;;;;;;;14.60;4.78;;;12.50;99.90;;;;;;5086634;28;20046;-77
2022/08/02 04:05:37;;;;;;;16.02;7.10;;;12.40;99.90;;;;;;5084953;28;20028;-77
2022/08/02 04:08:03;;;;;;;12.38;5.82;;;12.40;99.90;;;;;;5068195;28;20405;-78
2022/08/02 04:10:29;;;;;;;10.10;4.55;;;12.50;99.90;;;;;;5085283;28;20070;-78
2022/08/02 04:12:56;;;;;;;13.32;5.43;;;12.40;99.90;;;;;;5068469;28;20139;-78
2022/08/02 04:15:23;;;;;;;15.75;5.03;;;12.50;99.90;;;;;;5085102;28;20531;-78
2022/08/02 04:17:55;;;;;;;9.32;4.43;;;12.40;99.90;;;;;;5085302;28;20043;-78
2022/08/02 04:20:26;;;;;;;15.70;5.38;;;12.60;99.90;;;;;;5047715;28;20064;-78
2022/08/02 04:22:59;;;;;;;7.65;4.07;;;12.60;99.90;;;;;;5053633;28;20032;-78
2022/08/02 04:25:26;;;;;;;10.43;4.45;;;12.70;99.90;;;;;;5078429;28;20031;-77
2022/08/02 04:27:52;;;;;;;8.80;3.65;;;12.70;99.90;;;;;;5068811;28;20044;-78
2022/08/02 04:30:20;;;;;;;9.60;4.72;;;12.60;99.90;;;;;;5087111;28;20048;-74
2022/08/02 04:32:46;;;;;;;11.55;3.95;;;12.70;99.90;;;;;;5067194;28;20048;-78
2022/08/02 04:35:12;;;;;;;13.02;4.95;;;12.60;99.90;;;;;;5063589;28;20044;-77
2022/08/02 04:37:38;;;;;;;9.52;4.70;;;12.70;99.90;;;;;;5068122;28;20047;-77
2022/08/02 04:40:11;;;;;;;8.73;4.50;;;12.60;99.90;;;;;;5065885;28;20642;-77
2022/08/02 04:42:37;;;;;;;10.02;4.38;;;12.70;99.90;;;;;;5066854;28;20101;-78
2022/08/02 04:45:07;;;;;;;14.43;5.97;;;12.70;99.90;;;;;;5066667;28;20056;-78
2022/08/02 04:47:33;;;;;;;15.13;6.23;;;12.70;99.90;;;;;;5066372;28;20084;-79
2022/08/02 04:49:58;;;;;;;16.35;4.93;;;12.80;99.90;;;;;;5076216;28;20071;-77
2022/08/02 04:52:24;;;;;;;10.77;4.50;;;12.80;99.90;;;;;;5067123;28;20600;-76
2022/08/02 04:54:50;;;;;;;8.13;4.05;;;12.90;99.90;;;;;;5065480;28;20135;-77
2022/08/02 05:00:01;;;;;;;10.35;4.70;;;13.10;99.90;;;;;;5079247;28;20052;-78
2022/08/02 05:02:27;;;;;;;15.48;4.93;;;13.10;99.90;;;;;;5067069;28;20048;-79
2022/08/02 05:04:52;;;;;;;11.05;4.03;;;13.30;99.90;;;;;;5065935;28;20045;-78
2022/08/02 05:07:18;;;;;;;8.20;3.53;;;13.30;99.90;;;;;;5085748;28;20483;-74
2022/08/02 05:09:44;;;;;;;16.27;4.65;;;13.30;99.90;;;;;;5068901;28;20047;-78
2022/08/02 05:12:09;;;;;;;12.02;4.35;;;13.50;99.90;;;;;;5085530;28;20075;-77
2022/08/02 05:14:35;;;;;;;8.70;3.95;;;13.50;99.90;;;;;;5066148;28;20044;-77
2022/08/02 05:17:01;;;;;;;9.20;4.10;;;13.60;99.90;;;;;;5062359;28;20055;-76
2022/08/02 05:19:26;;;;;;;12.73;6.72;;;13.60;99.90;;;;;;5062703;28;20115;-77
2022/08/02 05:21:52;;;;;;;34.17;4.95;;;13.70;99.90;;;;;;5059983;28;20479;-78
2022/08/02 05:24:17;;;;;;;7.15;3.28;;;13.80;99.90;;;;;;5086790;28;20089;-77
2022/08/02 05:26:43;;;;;;;6.75;3.35;;;13.80;99.90;;;;;;5071270;28;20407;-78
2022/08/02 05:29:09;;;;;;;17.00;4.70;;;13.70;99.90;;;;;;5085037;28;20047;-79
2022/08/02 05:31:34;;;;;;;7.50;3.30;;;13.80;99.90;;;;;;5075639;28;20035;-77
2022/08/02 05:34:00;;;;;;;12.18;4.38;;;13.80;99.90;;;;;;5088019;28;20051;-77
2022/08/02 05:36:26;;;;;;;10.63;4.25;;;13.90;99.90;;;;;;5074080;28;20058;-77
2022/08/02 05:38:51;;;;;;;7.57;3.33;;;14.00;99.90;;;;;;5071174;28;20049;-76
2022/08/02 05:41:18;;;;;;;11.57;3.97;;;14.00;99.90;;;;;;5063730;28;20099;-78
2022/08/02 05:43:45;;;;;;;9.52;4.78;;;14.00;99.90;;;;;;5064453;28;20121;-78
2022/08/02 05:46:11;;;;;;;8.70;4.53;;;14.10;99.90;;;;;;5063450;28;20451;-80
2022/08/02 05:48:37;;;;;;;18.00;6.57;;;14.10;99.90;;;;;;5070794;28;20052;-77
2022/08/02 05:51:05;;;;;;;11.75;3.55;;;14.20;99.90;;;;;;5068955;28;20079;-76
2022/08/02 05:53:43;;;;;;;11.00;3.90;;;14.30;99.90;;;;;;5067927;28;20048;-78
2022/08/02 05:56:20;;;;;;;10.10;4.20;;;14.30;99.90;;;;;;5081756;28;20059;-79
2022/08/02 05:59:02;;;;;;;12.65;3.42;;;14.40;99.90;;;;;;5069787;28;20383;-78
2022/08/02 06:01:39;;;;;;;5.47;3.00;;;14.60;99.90;;;;;;5083757;28;20048;-78
2022/08/02 06:04:08;;;;;;;8.02;3.65;;;14.70;99.90;;;;;;5079501;28;20055;-78
2022/08/02 06:06:35;;;;;;;10.13;3.72;;;14.80;99.90;;;;;;5086087;28;20476;-80
2022/08/02 06:09:07;;;;;;;5.38;2.85;;;15.00;99.90;;;;;;5058200;28;20504;-80
2022/08/02 06:11:37;;;;;;;25.75;3.63;;;15.10;99.90;;;;;;5064107;28;20040;-78
2022/08/02 06:14:06;;;;;;;8.20;3.70;;;15.30;99.90;;;;;;5065511;28;20439;-79
2022/08/02 06:16:34;;;;;;;10.00;4.05;;;15.40;99.90;;;;;;5067396;28;20697;-80
2022/08/02 06:19:00;;;;;;;13.02;3.63;;;15.50;99.90;;;;;;5082778;28;20047;-79
2022/08/02 06:21:26;;;;;;;5.75;2.45;;;15.60;99.90;;;;;;5086164;28;20048;-76
2022/08/02 06:23:53;;;;;;;8.57;2.42;;;15.80;99.90;;;;;;5050537;28;20127;-77
2022/08/02 06:26:21;;;;;;;5.53;2.72;;;15.90;99.90;;;;;;5083829;28;20051;-77
2022/08/02 06:28:48;;;;;;;5.05;2.60;;;16.00;99.90;;;;;;5086649;28;20230;-78
2022/08/02 06:31:15;;;;;;;9.45;2.95;;;16.00;99.90;;;;;;5067361;28;20048;-77
2022/08/02 06:33:40;;;;;;;10.05;3.40;;;16.00;99.90;;;;;;5085167;28;20040;-78
2022/08/02 06:36:16;;;;;;;12.13;3.58;;;16.00;99.90;;;;;;5064002;28;20044;-76
2022/08/02 06:39:27;;;;;;;8.05;3.00;;;16.10;99.90;;;;;;5066546;28;20636;-76
2022/08/02 06:41:58;;;;;;;7.30;2.40;;;16.10;99.90;;;;;;5047129;28;20578;-76
2022/08/02 06:44:24;;;;;;;6.68;2.40;;;16.20;99.90;;;;;;5049822;28;20404;-77
2022/08/02 06:46:50;;;;;;;9.50;3.20;;;16.30;99.90;;;;;;5048247;28;20068;-79
2022/08/02 06:49:19;;;;;;;7.65;2.55;;;16.40;99.90;;;;;;5061333;28;20043;-79
2022/08/02 06:51:44;;;;;;;7.65;3.67;;;16.50;99.90;;;;;;5048742;28;20033;-79
2022/08/02 06:54:10;;;;;;;12.63;2.92;;;16.60;99.90;;;;;;5048182;28;20067;-77
2022/08/02 06:56:35;;;;;;;8.00;2.50;;;16.80;99.90;;;;;;5050291;28;20108;-78
2022/08/02 06:59:01;;;;;;;4.13;2.13;;;16.90;99.90;;;;;;5068772;28;20040;-79
2022/08/02 07:01:27;;;;;;;6.20;2.30;;;17.10;99.90;;;;;;5086591;28;20123;-79
2022/08/02 07:03:53;;;;;;;8.77;2.45;;;17.20;99.90;;;;;;5083788;28;20079;-77
2022/08/02 07:06:18;;;;;;;3.30;1.70;;;17.30;99.90;;;;;;5047752;28;20040;-76
2022/08/02 07:08:44;;;;;;;6.65;2.53;;;17.30;99.90;;;;;;5086665;28;20123;-76
2022/08/02 07:11:10;;;;;;;4.20;2.10;;;17.30;99.90;;;;;;5084192;28;20082;-79
2022/08/02 07:13:36;;;;;;;6.03;1.92;;;17.40;99.90;;;;;;5081169;28;20566;-77
2022/08/02 07:16:03;;;;;;;7.32;1.95;;;17.70;99.90;;;;;;5062665;28;20070;-77
2022/08/02 07:18:29;;;;;;;8.93;2.00;;;18.50;99.90;;;;;;5065492;28;20120;-77
2022/08/02 07:20:54;;;;;;;5.03;1.77;;;19.30;99.90;;;;;;5086220;28;20127;-78
2022/08/02 07:23:20;;;;;;;7.70;2.35;;;20.10;99.90;;;;;;5085130;28;20362;-78
2022/08/02 07:25:46;;;;;;;5.97;2.17;;;20.60;99.90;;;;;;5083724;28;20068;-77
2022/08/02 07:28:14;;;;;;;5.60;1.45;;;20.60;99.90;;;;;;5077943;28;20043;-78
2022/08/02 07:30:40;;;;;;;6.15;1.42;;;21.00;99.90;;;;;;5058483;28;20055;-77
2022/08/02 07:33:06;;;;;;;6.18;1.40;;;22.10;99.90;;;;;;5064066;28;20036;-76
2022/08/02 07:35:32;;;;;;;7.30;2.63;;;21.50;99.90;;;;;;5085489;28;20560;-77
2022/08/02 07:37:57;;;;;;;5.32;2.00;;;21.90;99.90;;;;;;5066970;28;20143;-77
2022/08/02 07:40:23;;;;;;;6.80;2.10;;;21.20;99.90;;;;;;5059693;28;20047;-76
2022/08/02 07:42:52;;;;;;;3.05;1.70;;;20.30;99.90;;;;;;5085060;28;20042;-76
2022/08/02 07:45:20;;;;;;;3.60;1.30;;;19.70;99.90;;;;;;5044953;28;20063;-77
2022/08/02 07:47:46;;;;;;;6.93;2.50;;;19.70;99.90;;;;;;5062726;28;20052;-78
2022/08/02 07:50:13;;;;;;;3.65;1.20;;;19.90;99.90;;;;;;5037448;28;20239;-79
2022/08/02 07:52:40;;;;;;;6.32;1.92;;;19.90;99.90;;;;;;5065751;28;20439;-77
2022/08/02 07:55:06;;;;;;;5.53;3.15;;;19.90;99.90;;;;;;5066178;28;20398;-79
2022/08/02 07:57:32;;;;;;;5.32;1.90;;;20.10;99.90;;;;;;5051225;28;20119;-79
2022/08/02 07:59:58;;;;;;;6.65;1.60;;;20.10;99.90;;;;;;5066729;28;20203;-84
2022/08/02 08:02:24;;;;;;;3.60;1.00;;;20.20;99.90;;;;;;5066034;28;20402;-78
2022/08/02 08:04:50;;;;;;;3.17;1.05;;;20.20;99.90;;;;;;5062482;28;20082;-77
2022/08/02 08:07:16;;;;;;;2.17;1.05;;;20.20;99.90;;;;;;5050765;28;20048;-75
2022/08/02 08:09:42;;;;;;;4.35;1.10;;;20.40;99.90;;;;;;5064990;28;20036;-74
2022/08/02 08:12:09;;;;;;;4.20;1.83;;;20.20;99.90;;;;;;5062915;28;20874;-75
2022/08/02 08:14:36;;;;;;;2.05;0.65;;;20.30;99.90;;;;;;5063948;28;20036;-75
2022/08/02 08:17:02;;;;;;;1.55;0.95;;;20.40;99.90;;;;;;5067925;28;20131;-74
2022/08/02 08:19:28;;;;;;;4.15;1.23;;;20.40;99.90;;;;;;5065821;28;20040;-75
2022/08/02 08:21:53;;;;;;;9.30;1.55;;;20.50;99.90;;;;;;5064241;28;20139;-75
2022/08/02 08:24:19;;;;;;;2.30;0.63;;;20.50;99.90;;;;;;5052683;28;20044;-75
2022/08/02 08:26:45;;;;;;;4.68;1.73;;;20.70;99.90;;;;;;5062643;28;20248;-75
2022/08/02 08:29:10;;;;;;;7.43;1.80;;;20.90;99.90;;;;;;5059872;28;20048;-76
2022/08/02 08:31:36;;;;;;;2.83;0.88;;;21.00;99.90;;;;;;5064914;28;20407;-77
2022/08/02 08:34:03;;;;;;;3.88;1.90;;;21.20;99.90;;;;;;5064113;28;20049;-75
2022/08/02 08:36:30;;;;;;;4.85;1.05;;;21.20;99.90;;;;;;5033939;28;20136;-75
2022/08/02 08:38:55;;;;;;;2.75;1.33;;;21.40;99.90;;;;;;5067878;28;20403;-75
2022/08/02 08:41:21;;;;;;;5.22;1.40;;;21.70;99.90;;;;;;5061178;28;20040;-75
2022/08/02 08:43:47;;;;;;;3.40;1.42;;;21.60;99.90;;;;;;5068513;28;20463;-76
2022/08/02 08:46:30;;;;;;;4.38;1.40;;;21.70;99.90;;;;;;5086364;28;20152;-75
2022/08/02 08:49:04;;;;;;;4.10;1.42;;;21.80;99.90;;;;;;5079733;28;20044;-77
2022/08/02 08:51:34;;;;;;;2.00;0.98;;;22.00;99.90;;;;;;5077816;28;20570;-77
2022/08/02 08:54:03;;;;;;;1.25;0.98;;;22.00;99.90;;;;;;5073723;28;20111;-76
2022/08/02 08:56:32;;;;;;;4.45;2.10;;;22.10;99.90;;;;;;5067211;28;20048;-74
2022/08/02 08:58:57;;;;;;;4.20;1.48;;;22.20;99.90;;;;;;5064710;28;20048;-75
2022/08/02 09:01:23;;;;;;;6.53;2.15;;;22.20;99.90;;;;;;5056579;28;20040;-75
2022/08/02 09:03:49;;;;;;;6.32;1.70;;;22.30;99.90;;;;;;5086632;28;20040;-76
2022/08/02 09:06:15;;;;;;;3.90;1.15;;;22.50;99.90;;;;;;5072357;28;20044;-75
2022/08/02 09:08:41;;;;;;;4.90;1.17;;;22.60;99.90;;;;;;5067274;28;20040;-75
2022/08/02 09:11:15;;;;;;;2.75;1.75;;;22.60;99.90;;;;;;5062022;28;20074;-76
2022/08/02 09:14:06;;;;;;;3.30;0.98;;;22.70;99.90;;;;;;5044328;28;20510;-74
2022/08/02 09:16:37;;;;;;;4.35;1.52;;;22.60;99.90;;;;;;5078177;28;20040;-76
2022/08/02 09:19:36;;;;;;;6.88;1.42;;;22.80;99.90;;;;;;5059872;28;20031;-76
2022/08/02 09:22:06;;;;;;;7.63;1.60;;;22.70;99.90;;;;;;5017561;28;20048;-78
2022/08/02 09:24:44;;;;;;;6.85;1.83;;;22.60;99.90;;;;;;5082885;28;20386;-77
2022/08/02 09:27:16;;;;;;;5.18;1.40;;;22.60;99.90;;;;;;5083273;28;20051;-77
2022/08/02 09:29:50;;;;;;;2.50;1.45;;;22.70;99.90;;;;;;5070354;28;20652;-75
2022/08/02 09:32:17;;;;;;;2.22;1.85;;;22.70;99.90;;;;;;5085025;28;20048;-77
2022/08/02 09:34:52;;;;;;;4.38;1.42;;;22.70;99.90;;;;;;5053977;28;20041;-75
2022/08/02 09:37:23;;;;;;;5.22;2.10;;;22.80;99.90;;;;;;5052709;28;20123;-76
2022/08/02 09:39:49;;;;;;;9.38;2.00;;;23.10;99.90;;;;;;5066603;28;20032;-74
2022/08/02 09:42:14;;;;;;;3.10;1.92;;;23.10;99.90;;;;;;5085062;28;20040;-76
2022/08/02 09:44:52;;;;;;;3.55;1.60;;;23.20;99.90;;;;;;5062435;28;20056;-79
2022/08/02 09:47:18;;;;;;;7.18;2.70;;;23.30;99.90;;;;;;5071239;28;20490;-79
2022/08/02 09:49:47;;;;;;;5.47;2.85;;;23.40;99.90;;;;;;5085580;28;20036;-80
2022/08/02 09:52:14;;;;;;;6.25;2.28;;;23.30;99.90;;;;;;5073603;28;20047;-80
2022/08/02 09:54:40;;;;;;;9.00;2.40;;;23.50;99.90;;;;;;5067187;28;20048;-79
2022/08/02 09:57:06;;;;;;;7.55;2.28;;;23.60;99.90;;;;;;5082802;28;20031;-79
2022/08/02 09:59:32;;;;;;;10.32;3.55;;;23.70;99.90;;;;;;5084706;28;20071;-79
2022/08/02 10:01:59;;;;;;;4.68;3.33;;;23.80;99.90;;;;;;5075259;28;20045;-79
2022/08/02 10:04:29;;;;;;;4.93;2.67;;;23.60;99.90;;;;;;5080743;28;20123;-78
2022/08/02 10:06:55;;;;;;;9.82;3.90;;;23.80;99.90;;;;;;5067136;28;20048;-77
2022/08/02 10:09:21;;;;;;;8.00;2.30;;;23.70;99.90;;;;;;5084533;28;20097;-79
2022/08/02 10:11:48;;;;;;;6.95;2.85;;;24.00;99.90;;;;;;5074347;28;20054;-79
2022/08/02 10:14:14;;;;;;;10.95;3.65;;;23.80;99.90;;;;;;5061527;28;20063;-78
2022/08/02 10:16:42;;;;;;;6.80;2.47;;;23.90;99.90;;;;;;5072098;28;20501;-80
2022/08/02 10:19:08;;;;;;;5.95;3.15;;;24.20;99.90;;;;;;5074534;28;20256;-79
2022/08/02 10:21:51;;;;;;;2.65;2.17;;;24.10;99.90;;;;;;5064404;28;20036;-78
2022/08/02 10:24:21;;;;;;;5.45;2.58;;;24.10;99.90;;;;;;5075334;28;20040;-79
2022/08/02 10:26:47;;;;;;;6.20;3.13;;;24.20;99.90;;;;;;5084448;28;20545;-79
2022/08/02 10:29:19;;;;;;;6.70;2.72;;;24.20;99.90;;;;;;5064950;28;20044;-80
2022/08/02 10:31:55;;;;;;;4.50;3.10;;;24.50;99.90;;;;;;5064101;28;20041;-79
2022/08/02 10:34:27;;;;;;;4.70;3.05;;;24.60;99.90;;;;;;5074834;28;20035;-82
2022/08/02 10:36:53;;;;;;;5.22;3.38;;;24.70;99.90;;;;;;5072942;28;20170;-78
2022/08/02 10:39:19;;;;;;;5.45;2.50;;;24.50;99.90;;;;;;5046535;28;20043;-76
2022/08/02 10:41:49;;;;;;;4.30;2.50;;;24.50;99.90;;;;;;5063501;28;20040;-78
2022/08/02 10:44:29;;;;;;;3.25;2.38;;;24.40;99.90;;;;;;5085243;28;20132;-79
2022/08/02 10:47:14;;;;;;;6.13;3.50;;;24.40;99.90;;;;;;5054215;28;20189;-80
2022/08/02 10:49:49;;;;;;;7.22;2.63;;;24.40;99.90;;;;;;5084462;28;20037;-80
2022/08/02 10:52:15;;;;;;;3.97;2.72;;;24.20;99.90;;;;;;5083773;28;20514;-79
2022/08/02 10:54:49;;;;;;;3.78;2.22;;;24.20;99.90;;;;;;5083401;28;20047;-78
2022/08/02 10:57:17;;;;;;;8.70;3.08;;;24.10;99.90;;;;;;5085096;28;20049;-84
2022/08/02 10:59:43;;;;;;;5.18;3.10;;;24.20;99.90;;;;;;5086211;28;20051;-79
2022/08/02 11:02:09;;;;;;;5.28;2.22;;;24.30;99.90;;;;;;5084134;28;20052;-78
2022/08/02 11:04:40;;;;;;;5.75;2.67;;;24.40;99.90;;;;;;5066558;28;20032;-79
2022/08/02 11:07:15;;;;;;;6.25;4.32;;;24.50;99.90;;;;;;5068010;28;20044;-79
2022/08/02 11:09:42;;;;;;;5.38;3.53;;;24.50;99.90;;;;;;5080579;28;20036;-78
2022/08/02 11:12:19;;;;;;;7.38;5.28;;;24.60;99.90;;;;;;5066860;28;20458;-79
2022/08/02 11:15:04;;;;;;;4.47;3.55;;;24.70;99.90;;;;;;5060076;28;20344;-79
2022/08/02 11:17:55;;;;;;;6.32;3.78;;;24.80;99.90;;;;;;5085874;28;20036;-79
2022/08/02 11:20:23;;;;;;;5.63;4.20;;;24.50;99.90;;;;;;5084588;28;20040;-80
2022/08/02 11:22:52;;;;;;;6.65;4.20;;;24.50;99.90;;;;;;5064387;28;20046;-80
2022/08/02 11:25:23;;;;;;;4.65;2.63;;;24.40;99.90;;;;;;5083645;28;20044;-82
2022/08/02 11:27:53;;;;;;;4.25;2.50;;;24.30;99.90;;;;;;5054523;28;20040;-79
2022/08/02 11:30:20;;;;;;;4.45;2.50;;;24.30;99.90;;;;;;5067742;28;20054;-77
2022/08/02 11:32:47;;;;;;;3.10;1.90;;;24.30;99.90;;;;;;5088538;28;21517;-79
2022/08/02 11:35:14;;;;;;;7.25;2.50;;;24.50;99.90;;;;;;5088875;28;20179;-79
2022/08/02 11:37:43;;;;;;;5.78;3.25;;;24.80;99.90;;;;;;5087164;28;20052;-79
2022/08/02 11:40:15;;;;;;;7.72;2.58;;;25.00;99.90;;;;;;5068905;28;20043;-82
2022/08/02 11:42:43;;;;;;;4.60;4.15;;;25.10;99.90;;;;;;5080778;28;20048;-78
2022/08/02 11:45:11;;;;;;;5.20;3.10;;;25.00;99.90;;;;;;5087186;28;20500;-79
2022/08/02 11:47:50;;;;;;;5.47;3.50;;;25.00;99.90;;;;;;5086833;28;20097;-78
2022/08/02 11:50:19;;;;;;;8.60;4.32;;;25.10;99.90;;;;;;5068123;28;20118;-81
2022/08/02 11:52:45;;;;;;;5.85;3.70;;;25.10;99.90;;;;;;5071843;28;20521;-82
2022/08/02 11:55:12;;;;;;;6.07;4.60;;;24.90;99.90;;;;;;5068595;28;20048;-78
2022/08/02 11:57:38;;;;;;;7.25;4.15;;;24.90;99.90;;;;;;5068893;28;20040;-79
2022/08/02 12:00:14;;;;;;;4.85;4.25;;;24.60;99.90;;;;;;5086765;28;20398;-78
2022/08/02 12:02:47;;;;;;;6.60;4.70;;;24.60;99.90;;;;;;5067412;28;20044;-79
2022/08/02 12:05:19;;;;;;;7.80;5.03;;;24.70;99.90;;;;;;5070381;28;20051;-78
2022/08/02 12:07:45;;;;;;;7.10;4.82;;;24.60;99.90;;;;;;5056671;28;20044;-79
2022/08/02 12:10:14;;;;;;;6.88;5.30;;;24.60;99.90;;;;;;5080194;28;20074;-79
2022/08/02 12:13:06;;;;;;;6.57;4.95;;;24.30;99.90;;;;;;5087761;28;20048;-79
2022/08/02 12:15:36;;;;;;;8.95;5.63;;;24.50;99.90;;;;;;5081671;28;20055;-79
2022/08/02 12:20:46;;;;;;;14.05;6.22;;;24.30;99.90;;;;;;5086786;28;20852;-78
2022/08/02 12:23:13;;;;;;;7.68;5.15;;;24.30;99.90;;;;;;5087744;28;20040;-79
2022/08/02 12:25:38;;;;;;;7.80;6.15;;;24.20;99.90;;;;;;5067594;28;20117;-76
2022/08/02 12:28:16;;;;;;;6.65;5.28;;;24.20;99.90;;;;;;5069105;28;20043;-77
2022/08/02 12:30:59;;;;;;;8.95;6.90;;;24.20;99.90;;;;;;5088651;28;20040;-78
2022/08/02 12:33:27;;;;;;;8.07;6.38;;;24.00;99.90;;;;;;5049482;28;20112;-79
2022/08/02 12:35:53;;;;;;;10.30;5.75;;;24.00;99.90;;;;;;5086072;28;20036;-78
2022/08/02 12:38:19;;;;;;;7.70;6.32;;;23.90;99.90;;;;;;5086945;28;20124;-79
2022/08/02 12:40:45;;;;;;;8.68;6.03;;;23.90;99.90;;;;;;5069682;28;20040;-77
2022/08/02 12:43:22;;;;;;;8.10;6.25;;;23.90;99.90;;;;;;5084332;28;20071;-78
2022/08/02 12:45:55;;;;;;;12.63;9.15;;;23.80;99.90;;;;;;5087513;28;20091;-78
2022/08/02 12:48:35;;;;;;;8.32;7.43;;;23.90;99.90;;;;;;5070210;28;20575;-79
2022/08/02 12:51:19;;;;;;;;;;;24.00;99.90;;;;;;5085720;28;20081;-77
2022/08/02 12:53:44;;;;;;;10.27;7.43;;;24.10;99.90;;;;;;5067903;28;19973;-78
2022/08/02 12:56:10;;;;;;;11.30;7.75;;;24.00;99.90;;;;;;5081852;28;20445;-78
2022/08/02 12:58:48;;;;;;;12.98;7.00;;;24.00;99.90;;;;;;5067833;28;20044;-78